M/V Alton St. Amant — WDE7604 — position and weather

sailwx.info

Track history (hours):
 
Tides and Currents Weather Stations Pressure Air Temp Water Temp Dewpoint Dewpoint Depression Visibility Wind Speed Wind Dir Waves Ship Positions

M/V Alton St. Amant

Owner: The Barge Investment Group Five, L.L.C., Harahan, LA. More information available from US FCC via Universal Licensing System and Coast Guard Vessel Documentation Center.

Last reported at 2017-Mar-29 08:33 UTC. Time now 2017-Mar-29 09:26 UTC.
Position N 29°37' W 095°02'.

Length 25 m; draft 2.7 m.

Type: Towing. MMSI: 367395270.

Date/timePositionNaut miles runAvg speedWind from/ knotsBaromVisibWave heightAir tempDewpointWater temp
2017-Mar-29 08:33N 29°37' W 095°02'0 0.0
2017-Mar-29 07:33N 29°37' W 095°02'0 0.0
2017-Mar-29 06:33N 29°37' W 095°02'0 0.0
2017-Mar-29 05:33N 29°37' W 095°02'0 0.0
2017-Mar-29 04:33N 29°37' W 095°02'0 0.0
2017-Mar-29 03:33N 29°37' W 095°02'0 0.0
2017-Mar-29 02:33N 29°37' W 095°02'0 0.0
2017-Mar-29 01:33N 29°37' W 095°02'0 0.0
2017-Mar-29 00:33N 29°37' W 095°02'0 0.0
2017-Mar-28 23:33N 29°37' W 095°02'0 0.0
2017-Mar-28 22:33N 29°37' W 095°02'0 0.0
2017-Mar-28 21:33N 29°37' W 095°02'0 0.0
2017-Mar-28 20:33N 29°37' W 095°02'0 0.0
2017-Mar-28 19:33N 29°37' W 095°02'0 0.0
2017-Mar-28 18:33N 29°37' W 095°02'0 0.0
2017-Mar-28 17:33N 29°37' W 095°02'0 0.0
2017-Mar-28 16:33N 29°37' W 095°02'0 0.0
2017-Mar-28 15:33N 29°37' W 095°02'0 0.0
2017-Mar-28 14:33N 29°37' W 095°02'0 0.0
2017-Mar-28 13:33N 29°37' W 095°02'0 0.0
2017-Mar-28 12:33N 29°37' W 095°02'0 0.0
2017-Mar-28 11:33N 29°37' W 095°02'0 0.0
2017-Mar-28 10:33N 29°37' W 095°02'0 0.0
2017-Mar-28 09:33N 29°37' W 095°02'0 0.0
2017-Mar-28 08:33N 29°37' W 095°02'1 0.3
2017-Mar-28 06:33N 29°37' W 095°01'3 2.6
2017-Mar-28 05:33N 29°37' W 094°58'4 4.3
2017-Mar-28 04:33N 29°41' W 094°59'4 4.2
2017-Mar-28 03:32N 29°44' W 095°03'1 0.0
2017-Mar-26 14:33N 29°44' W 095°03'1 0.0
2017-Mar-26 02:19N 29°44' W 095°03'0 0.0
2017-Mar-25 15:15N 29°44' W 095°03'0 0.1
2017-Mar-25 14:33N 29°44' W 095°03'2 0.0
2017-Mar-23 13:28N 29°43' W 095°01'6 6.2
2017-Mar-23 12:34N 29°38' W 094°58'7 6.6
2017-Mar-23 11:33N 29°32' W 094°54'  
2017-Mar-20 01:33N 29°35' W 094°56'7 7.5
2017-Mar-20 00:33N 29°42' W 094°60'  
Track history (hours):
 
Tides and Currents Weather Stations Pressure Air Temp Water Temp Dewpoint Dewpoint Depression Visibility Wind Speed Wind Dir Waves Ship Positions

M/V Alton St. Amant

Owner: The Barge Investment Group Five, L.L.C., Harahan, LA. More information available from US FCC via Universal Licensing System and Coast Guard Vessel Documentation Center.

Last reported at 2017-Mar-29 08:33 UTC. Time now 2017-Mar-29 09:26 UTC.
Position N 29°37' W 095°02'.

Length 25 m; draft 2.7 m.

Type: Towing. MMSI: 367395270.

Date/timePositionNaut miles runAvg speedWind from/ knotsBaromVisibWave heightAir tempDewpointWater temp
2017-Mar-29 08:33N 29°37' W 095°02'0 0.0
2017-Mar-29 07:33N 29°37' W 095°02'0 0.0
2017-Mar-29 06:33N 29°37' W 095°02'0 0.0
2017-Mar-29 05:33N 29°37' W 095°02'0 0.0
2017-Mar-29 04:33N 29°37' W 095°02'0 0.0
2017-Mar-29 03:33N 29°37' W 095°02'0 0.0
2017-Mar-29 02:33N 29°37' W 095°02'0 0.0
2017-Mar-29 01:33N 29°37' W 095°02'0 0.0
2017-Mar-29 00:33N 29°37' W 095°02'0 0.0
2017-Mar-28 23:33N 29°37' W 095°02'0 0.0
2017-Mar-28 22:33N 29°37' W 095°02'0 0.0
2017-Mar-28 21:33N 29°37' W 095°02'0 0.0
2017-Mar-28 20:33N 29°37' W 095°02'0 0.0
2017-Mar-28 19:33N 29°37' W 095°02'0 0.0
2017-Mar-28 18:33N 29°37' W 095°02'0 0.0
2017-Mar-28 17:33N 29°37' W 095°02'0 0.0
2017-Mar-28 16:33N 29°37' W 095°02'0 0.0
2017-Mar-28 15:33N 29°37' W 095°02'0 0.0
2017-Mar-28 14:33N 29°37' W 095°02'0 0.0
2017-Mar-28 13:33N 29°37' W 095°02'0 0.0
2017-Mar-28 12:33N 29°37' W 095°02'0 0.0
2017-Mar-28 11:33N 29°37' W 095°02'0 0.0
2017-Mar-28 10:33N 29°37' W 095°02'0 0.0
2017-Mar-28 09:33N 29°37' W 095°02'0 0.0
2017-Mar-28 08:33N 29°37' W 095°02'1 0.3
2017-Mar-28 06:33N 29°37' W 095°01'3 2.6
2017-Mar-28 05:33N 29°37' W 094°58'4 4.3
2017-Mar-28 04:33N 29°41' W 094°59'4 4.2
2017-Mar-28 03:32N 29°44' W 095°03'1 0.0
2017-Mar-26 14:33N 29°44' W 095°03'1 0.0
2017-Mar-26 02:19N 29°44' W 095°03'0 0.0
2017-Mar-25 15:15N 29°44' W 095°03'0 0.1
2017-Mar-25 14:33N 29°44' W 095°03'2 0.0
2017-Mar-23 13:28N 29°43' W 095°01'6 6.2
2017-Mar-23 12:34N 29°38' W 094°58'7 6.6
2017-Mar-23 11:33N 29°32' W 094°54'  
2017-Mar-20 01:33N 29°35' W 094°56'7 7.5
2017-Mar-20 00:33N 29°42' W 094°60'  

Dump ship's entire track history